createdAt,value
2024-05-09T00:00:51.910Z,0.00
2024-05-09T00:01:52.597Z,0.00
2024-05-09T00:02:53.573Z,0.00
2024-05-09T00:03:54.625Z,0.00
2024-05-09T00:04:56.475Z,0.00
2024-05-09T00:05:56.847Z,0.00
2024-05-09T00:06:57.640Z,0.00
2024-05-09T00:07:58.711Z,0.00
2024-05-09T00:08:59.647Z,0.00
2024-05-09T00:10:00.762Z,0.00
2024-05-09T00:11:02.003Z,0.00
2024-05-09T00:12:03.637Z,0.00
2024-05-09T00:13:04.049Z,0.00
2024-05-09T00:14:04.773Z,0.00
2024-05-09T00:15:05.928Z,0.00
2024-05-09T00:16:06.844Z,0.00
2024-05-09T00:17:08.312Z,0.00
2024-05-09T00:18:09.059Z,0.00
2024-05-09T00:19:10.072Z,0.00
2024-05-09T00:20:17.467Z,0.00
2024-05-09T00:21:11.961Z,0.00
2024-05-09T00:22:12.889Z,0.00
2024-05-09T00:23:14.217Z,0.00
2024-05-09T00:24:14.892Z,0.00
2024-05-09T00:25:15.875Z,0.00
2024-05-09T00:26:16.918Z,0.00
2024-05-09T00:27:18.592Z,0.00
2024-05-09T00:28:18.951Z,0.00
2024-05-09T00:29:19.972Z,0.00
2024-05-09T00:30:28.223Z,0.00
2024-05-09T00:31:21.827Z,0.00
2024-05-09T00:32:23.184Z,0.00
2024-05-09T00:33:24.254Z,0.00
2024-05-09T00:34:24.929Z,0.00
2024-05-09T00:35:26.115Z,0.00
2024-05-09T00:36:27.030Z,0.00
2024-05-09T00:37:28.106Z,0.00
2024-05-09T00:38:28.607Z,0.00
2024-05-09T00:39:29.714Z,0.00
2024-05-09T00:40:38.285Z,0.00
2024-05-09T00:41:31.730Z,0.00
2024-05-09T00:42:32.568Z,0.00
2024-05-09T00:43:34.926Z,0.00
2024-05-09T00:44:34.853Z,0.00
2024-05-09T00:45:36.208Z,0.00
2024-05-09T00:46:37.239Z,0.00
2024-05-09T00:47:37.898Z,0.00
2024-05-09T00:48:38.974Z,0.00
2024-05-09T00:49:39.790Z,0.00
2024-05-09T00:50:41.818Z,0.00
2024-05-09T00:51:41.802Z,0.00
2024-05-09T00:52:42.897Z,0.00
2024-05-09T00:53:43.939Z,0.00
2024-05-09T00:54:44.784Z,0.00
2024-05-09T00:55:45.830Z,0.00
2024-05-09T00:56:46.830Z,0.00
2024-05-09T00:57:47.858Z,0.00
2024-05-09T00:58:48.778Z,0.00
2024-05-09T00:59:49.810Z,0.00
2024-05-09T01:00:52.109Z,0.00
2024-05-09T01:01:52.020Z,0.00
2024-05-09T01:02:52.844Z,0.00
2024-05-09T01:05:55.711Z,0.00
2024-05-09T01:06:57.111Z,0.00
2024-05-09T01:07:58.057Z,0.00
2024-05-09T01:09:04.375Z,0.00
2024-05-09T01:10:00.305Z,0.00
2024-05-09T01:11:06.557Z,0.00
2024-05-09T01:12:02.113Z,0.00
2024-05-09T01:13:03.165Z,0.00
2024-05-09T01:14:04.055Z,0.00
2024-05-09T01:15:04.907Z,0.00
2024-05-09T01:16:06.452Z,0.00
2024-05-09T01:17:12.697Z,0.00
2024-05-09T01:17:36.991Z,0.00
2024-05-09T01:18:08.296Z,0.00
2024-05-09T01:19:09.076Z,0.00
2024-05-09T01:20:12.966Z,0.00
2024-05-09T01:21:11.111Z,0.00
2024-05-09T01:22:12.000Z,0.00
2024-05-09T01:23:15.050Z,0.00
2024-05-09T01:24:13.932Z,0.00
2024-05-09T01:25:15.211Z,0.00
2024-05-09T01:26:16.041Z,0.00
2024-05-09T01:27:17.146Z,0.00
2024-05-09T01:28:18.148Z,0.00
2024-05-09T01:29:19.172Z,0.00
2024-05-09T01:30:24.550Z,0.00
2024-05-09T01:31:21.081Z,0.00
2024-05-09T01:32:22.364Z,0.00
2024-05-09T01:33:23.752Z,0.00
2024-05-09T01:34:24.076Z,0.00
2024-05-09T01:35:25.329Z,0.00
2024-05-09T01:36:26.073Z,0.00
2024-05-09T01:37:27.101Z,0.00
2024-05-09T01:38:28.026Z,0.00
2024-05-09T01:39:28.892Z,0.00
2024-05-09T01:40:36.973Z,0.00
2024-05-09T01:41:30.965Z,0.00
2024-05-09T01:42:32.361Z,0.00
2024-05-09T01:43:32.849Z,0.00
2024-05-09T01:44:33.900Z,0.00
2024-05-09T01:45:36.717Z,0.00
2024-05-09T01:46:37.020Z,0.00
2024-05-09T01:47:37.148Z,0.00
2024-05-09T01:48:37.954Z,0.00
2024-05-09T01:49:39.022Z,0.00
2024-05-09T01:50:42.439Z,0.00
2024-05-09T01:51:41.016Z,0.00
2024-05-09T01:52:42.142Z,0.00
2024-05-09T01:53:43.008Z,0.00
2024-05-09T01:54:44.081Z,0.00
2024-05-09T01:55:45.318Z,0.00
2024-05-09T01:56:46.036Z,0.00
2024-05-09T01:57:47.319Z,0.00
2024-05-09T01:58:48.012Z,0.00
2024-05-09T01:59:49.059Z,0.00
2024-05-09T02:00:50.278Z,0.00
2024-05-09T02:01:56.768Z,0.00
2024-05-09T02:02:52.439Z,0.00
2024-05-09T02:03:53.390Z,0.00
2024-05-09T02:04:54.138Z,0.00
2024-05-09T02:05:55.935Z,0.00
2024-05-09T02:06:56.340Z,0.00
2024-05-09T02:07:57.217Z,0.00
2024-05-09T02:08:58.302Z,0.00
2024-05-09T02:09:59.269Z,0.00
2024-05-09T02:11:00.666Z,0.00
2024-05-09T02:12:01.381Z,0.00
2024-05-09T02:13:02.270Z,0.00
2024-05-09T02:14:03.180Z,0.00
2024-05-09T02:15:04.411Z,0.00
2024-05-09T02:16:05.070Z,0.00
2024-05-09T02:17:06.229Z,0.00
2024-05-09T02:18:07.550Z,0.00
2024-05-09T02:19:08.434Z,0.00
2024-05-09T02:20:13.248Z,0.00
2024-05-09T02:21:10.273Z,0.00
2024-05-09T02:22:11.344Z,0.00
2024-05-09T02:23:12.646Z,0.00
2024-05-09T02:24:14.262Z,0.00
2024-05-09T02:25:14.348Z,0.00
2024-05-09T02:26:15.406Z,0.00
2024-05-09T02:27:16.302Z,0.00
2024-05-09T02:28:17.256Z,0.00
2024-05-09T02:29:18.455Z,0.00
2024-05-09T02:30:26.418Z,0.00
2024-05-09T02:31:20.488Z,0.00
2024-05-09T02:32:21.421Z,0.00
2024-05-09T02:33:22.667Z,0.00
2024-05-09T02:34:23.831Z,0.00
2024-05-09T02:35:24.626Z,0.00
2024-05-09T02:36:25.442Z,0.00
2024-05-09T02:37:27.148Z,0.00
2024-05-09T02:38:27.122Z,0.00
2024-05-09T02:39:28.054Z,0.00
2024-05-09T02:40:36.355Z,0.00
2024-05-09T02:41:30.210Z,0.00
2024-05-09T02:42:31.120Z,0.00
2024-05-09T02:43:32.140Z,0.00
2024-05-09T02:44:33.658Z,0.00
2024-05-09T02:45:37.711Z,0.00
2024-05-09T02:46:35.231Z,0.00
2024-05-09T02:47:36.219Z,0.00
2024-05-09T02:48:37.492Z,0.00
2024-05-09T02:49:38.294Z,0.00
2024-05-09T02:50:40.645Z,0.00
2024-05-09T02:51:41.257Z,0.00
2024-05-09T02:52:41.122Z,0.00
2024-05-09T02:53:42.324Z,0.00
2024-05-09T02:54:43.158Z,0.00
2024-05-09T02:55:44.289Z,0.01
2024-05-09T02:56:45.156Z,0.01
2024-05-09T02:57:46.245Z,0.01
2024-05-09T02:58:47.824Z,0.01
2024-05-09T02:59:48.806Z,0.02
2024-05-09T03:00:49.311Z,0.02
2024-05-09T03:01:50.341Z,0.02
2024-05-09T03:02:51.342Z,0.02
2024-05-09T03:03:52.381Z,0.03
2024-05-09T03:04:53.320Z,0.04
2024-05-09T03:05:54.488Z,0.05
2024-05-09T03:06:55.350Z,0.06
2024-05-09T03:07:56.475Z,0.06
2024-05-09T03:08:57.298Z,0.07
2024-05-09T03:09:59.039Z,0.08
2024-05-09T03:10:59.435Z,0.10
2024-05-09T03:12:00.528Z,0.12
2024-05-09T03:13:01.542Z,0.14
2024-05-09T03:14:02.414Z,0.17
2024-05-09T03:15:03.482Z,0.19
2024-05-09T03:16:04.732Z,0.22
2024-05-09T03:17:05.588Z,0.26
2024-05-09T03:18:06.997Z,0.30
2024-05-09T03:19:07.593Z,0.36
2024-05-09T03:20:14.644Z,0.41
2024-05-09T03:21:09.766Z,0.46
2024-05-09T03:22:10.573Z,0.53
2024-05-09T03:23:11.609Z,0.61
2024-05-09T03:24:12.542Z,0.69
2024-05-09T03:25:13.638Z,0.80
2024-05-09T03:26:15.154Z,0.88
2024-05-09T03:27:15.600Z,0.99
2024-05-09T03:28:16.822Z,1.12
2024-05-09T03:29:17.861Z,1.26
2024-05-09T03:30:26.144Z,1.41
2024-05-09T03:31:19.809Z,1.58
2024-05-09T03:32:20.617Z,1.70
2024-05-09T03:33:22.408Z,1.89
2024-05-09T03:34:22.720Z,2.09
2024-05-09T03:35:23.730Z,2.30
2024-05-09T03:36:24.819Z,2.53
2024-05-09T03:37:25.587Z,2.71
2024-05-09T03:38:26.832Z,2.95
2024-05-09T03:39:27.364Z,3.22
2024-05-09T03:40:30.893Z,3.50
2024-05-09T03:41:29.396Z,3.80
2024-05-09T03:42:30.498Z,4.02
2024-05-09T03:43:31.498Z,4.33
2024-05-09T03:44:32.539Z,4.65
2024-05-09T03:45:33.912Z,4.99
2024-05-09T03:46:36.244Z,5.34
2024-05-09T03:47:35.936Z,5.69
2024-05-09T03:48:36.619Z,5.97
2024-05-09T03:49:37.482Z,6.34
2024-05-09T03:50:38.781Z,6.72
2024-05-09T03:51:39.510Z,7.10
2024-05-09T03:52:40.717Z,7.49
2024-05-09T03:53:41.688Z,7.80
2024-05-09T03:54:42.546Z,8.20
2024-05-09T03:55:43.600Z,8.63
2024-05-09T03:56:49.894Z,9.04
2024-05-09T03:57:45.541Z,9.46
2024-05-09T03:58:46.644Z,9.79
2024-05-09T03:59:47.500Z,10.24
2024-05-09T04:00:49.207Z,10.69
2024-05-09T04:01:49.628Z,11.14
2024-05-09T04:02:50.705Z,11.59
2024-05-09T04:03:51.896Z,12.04
2024-05-09T04:04:53.610Z,12.36
2024-05-09T04:05:53.677Z,12.83
2024-05-09T04:06:55.017Z,13.29
2024-05-09T04:07:55.886Z,13.76
2024-05-09T04:08:56.666Z,14.24
2024-05-09T04:09:57.611Z,14.59
2024-05-09T04:10:58.803Z,15.07
2024-05-09T04:11:59.692Z,15.58
2024-05-09T04:13:00.909Z,16.08
2024-05-09T04:14:01.751Z,16.56
2024-05-09T04:15:02.944Z,16.91
2024-05-09T04:16:03.718Z,17.38
2024-05-09T04:17:04.799Z,17.84
2024-05-09T04:18:05.968Z,18.34
2024-05-09T04:19:06.894Z,18.82
2024-05-09T04:20:10.496Z,19.31
2024-05-09T04:21:08.750Z,19.69
2024-05-09T04:22:09.921Z,20.14
2024-05-09T04:23:11.228Z,20.58
2024-05-09T04:24:11.917Z,21.02
2024-05-09T04:25:12.888Z,21.46
2024-05-09T04:26:14.343Z,21.78
2024-05-09T04:27:14.848Z,22.20
2024-05-09T04:28:15.870Z,22.66
2024-05-09T04:29:16.926Z,23.05
2024-05-09T04:30:26.049Z,23.46
2024-05-09T04:31:18.836Z,23.80
2024-05-09T04:32:19.987Z,24.19
2024-05-09T04:33:21.943Z,24.66
2024-05-09T04:34:21.953Z,25.06
2024-05-09T04:35:23.682Z,25.42
2024-05-09T04:36:24.860Z,25.77
2024-05-09T04:37:24.993Z,26.02
2024-05-09T04:38:26.021Z,26.40
2024-05-09T04:39:26.627Z,26.71
2024-05-09T04:40:33.242Z,27.09
2024-05-09T04:41:33.387Z,27.32
2024-05-09T04:42:29.666Z,27.64
2024-05-09T04:43:31.191Z,27.96
2024-05-09T04:44:31.788Z,28.28
2024-05-09T04:45:32.934Z,28.64
2024-05-09T04:46:33.833Z,28.93
2024-05-09T04:47:40.154Z,28.93
2024-05-09T04:48:35.841Z,29.48
2024-05-09T04:49:36.985Z,29.80
2024-05-09T04:50:39.402Z,30.09
2024-05-09T04:51:38.811Z,30.36
2024-05-09T04:52:40.058Z,30.64
2024-05-09T04:53:41.373Z,30.88
2024-05-09T04:54:42.373Z,31.13
2024-05-09T04:55:43.825Z,31.35
2024-05-09T04:56:48.764Z,31.62
2024-05-09T04:57:44.769Z,31.87
2024-05-09T04:58:45.938Z,32.04
2024-05-09T04:59:46.776Z,32.29
2024-05-09T05:00:47.945Z,32.64
2024-05-09T05:01:49.015Z,33.04
2024-05-09T05:02:50.027Z,33.20
2024-05-09T05:03:51.094Z,33.28
2024-05-09T05:04:52.229Z,33.90
2024-05-09T05:05:53.421Z,34.19
2024-05-09T05:06:54.239Z,34.07
2024-05-09T05:07:54.853Z,34.90
2024-05-09T05:08:56.203Z,35.31
2024-05-09T05:09:56.918Z,34.93
2024-05-09T05:10:58.170Z,35.09
2024-05-09T05:11:59.022Z,35.47
2024-05-09T05:13:00.013Z,37.47
2024-05-09T05:14:01.125Z,41.67
2024-05-09T05:15:02.136Z,48.09
2024-05-09T05:16:03.083Z,56.54
2024-05-09T05:17:04.256Z,63.77
2024-05-09T05:18:05.249Z,68.63
2024-05-09T05:19:10.144Z,70.05
2024-05-09T05:20:08.558Z,70.91
2024-05-09T05:21:07.929Z,71.93
2024-05-09T05:22:09.145Z,73.05
2024-05-09T05:23:11.276Z,74.18
2024-05-09T05:24:10.983Z,75.40
2024-05-09T05:25:12.131Z,76.67
2024-05-09T05:26:13.342Z,77.69
2024-05-09T05:27:14.675Z,78.75
2024-05-09T05:28:15.862Z,80.08
2024-05-09T05:29:18.502Z,81.26
2024-05-09T05:30:21.505Z,82.33
2024-05-09T05:31:18.164Z,82.90
2024-05-09T05:32:19.349Z,84.14
2024-05-09T05:33:20.779Z,85.32
2024-05-09T05:34:21.065Z,86.46
2024-05-09T05:35:22.535Z,87.67
2024-05-09T05:36:23.802Z,88.62
2024-05-09T05:37:24.220Z,89.91
2024-05-09T05:38:28.107Z,91.13
2024-05-09T05:39:25.752Z,92.44
2024-05-09T05:40:33.130Z,93.90
2024-05-09T05:41:28.200Z,95.30
2024-05-09T05:42:28.915Z,96.22
2024-05-09T05:43:29.809Z,97.56
2024-05-09T05:44:31.796Z,98.75
2024-05-09T05:45:32.014Z,100.31
2024-05-09T05:46:32.970Z,101.84
2024-05-09T05:47:34.278Z,103.26
2024-05-09T05:48:35.361Z,104.64
2024-05-09T05:49:35.989Z,106.46
2024-05-09T05:50:38.376Z,107.94
2024-05-09T05:51:37.903Z,109.62
2024-05-09T05:52:39.067Z,111.08
2024-05-09T05:53:40.347Z,112.61
2024-05-09T05:54:40.938Z,114.12
2024-05-09T05:55:43.062Z,115.56
2024-05-09T05:56:43.387Z,117.17
2024-05-09T05:57:44.039Z,118.80
2024-05-09T05:58:45.231Z,119.98
2024-05-09T05:59:46.717Z,121.07
2024-05-09T06:00:47.357Z,122.59
2024-05-09T06:01:48.263Z,124.35
2024-05-09T06:02:49.455Z,126.29
2024-05-09T06:03:51.192Z,127.70
2024-05-09T06:04:51.322Z,129.76
2024-05-09T06:05:52.428Z,132.08
2024-05-09T06:06:53.281Z,134.51
2024-05-09T06:07:54.435Z,136.93
2024-05-09T06:08:55.384Z,138.74
2024-05-09T06:09:56.423Z,140.61
2024-05-09T06:10:57.279Z,142.26
2024-05-09T06:11:58.452Z,145.33
2024-05-09T06:12:59.384Z,148.57
2024-05-09T06:14:00.408Z,151.75
2024-05-09T06:15:01.427Z,154.22
2024-05-09T06:16:02.435Z,156.92
2024-05-09T06:17:03.730Z,160.60
2024-05-09T06:18:04.825Z,164.18
2024-05-09T06:19:05.372Z,167.52
2024-05-09T06:20:13.274Z,170.44
2024-05-09T06:21:07.724Z,175.91
2024-05-09T06:22:08.362Z,179.89
2024-05-09T06:23:10.213Z,184.03
2024-05-09T06:24:10.447Z,188.11
2024-05-09T06:25:11.971Z,194.78
2024-05-09T06:26:13.011Z,193.70
2024-05-09T06:27:13.525Z,126.80
2024-05-09T06:28:14.171Z,75.58
2024-05-09T06:29:15.933Z,79.04
2024-05-09T06:30:25.762Z,97.00
2024-05-09T06:31:17.340Z,104.90
2024-05-09T06:32:18.603Z,105.90
2024-05-09T06:33:21.027Z,72.00
2024-05-09T06:34:21.034Z,71.38
2024-05-09T06:35:21.809Z,131.63
2024-05-09T06:36:23.810Z,120.19
2024-05-09T06:37:23.562Z,83.20
2024-05-09T06:38:25.180Z,64.89
2024-05-09T06:39:25.210Z,65.63
2024-05-09T06:40:35.464Z,63.35
2024-05-09T06:41:27.312Z,64.42
2024-05-09T06:42:28.189Z,80.85
2024-05-09T06:43:29.113Z,91.57
2024-05-09T06:44:30.671Z,97.28
2024-05-09T06:45:31.369Z,83.15
2024-05-09T06:46:32.104Z,75.53
2024-05-09T06:47:33.734Z,83.16
2024-05-09T06:48:34.496Z,96.18
2024-05-09T06:49:35.272Z,101.82
2024-05-09T06:50:38.484Z,74.21
2024-05-09T06:51:37.159Z,64.59
2024-05-09T06:52:38.347Z,68.07
2024-05-09T06:53:39.228Z,64.50
2024-05-09T06:54:40.165Z,66.67
2024-05-09T06:55:41.400Z,71.24
2024-05-09T06:56:42.262Z,62.25
2024-05-09T06:57:43.453Z,57.51
2024-05-09T06:58:44.281Z,57.24
2024-05-09T06:59:45.385Z,96.02
2024-05-09T07:00:46.429Z,80.27
2024-05-09T07:01:47.478Z,169.53
2024-05-09T07:02:48.544Z,185.15
2024-05-09T07:03:49.579Z,105.68
2024-05-09T07:04:50.358Z,95.21
2024-05-09T07:05:52.289Z,206.28
2024-05-09T07:06:52.532Z,270.45
2024-05-09T07:07:53.329Z,113.21
2024-05-09T07:08:55.356Z,288.25
2024-05-09T07:09:55.467Z,291.09
2024-05-09T07:10:56.737Z,148.26
2024-05-09T07:11:57.903Z,293.89
2024-05-09T07:12:58.564Z,297.32
2024-05-09T07:13:59.715Z,299.56
2024-05-09T07:15:01.326Z,298.56
2024-05-09T07:16:02.492Z,296.83
2024-05-09T07:17:02.837Z,232.27
2024-05-09T07:18:04.532Z,290.15
2024-05-09T07:19:05.304Z,309.08
2024-05-09T07:20:08.986Z,311.63
2024-05-09T07:21:12.162Z,302.37
2024-05-09T07:22:08.343Z,311.73
2024-05-09T07:23:08.780Z,316.18
2024-05-09T07:24:09.846Z,317.53
2024-05-09T07:25:10.697Z,98.04
2024-05-09T07:26:11.836Z,281.06
2024-05-09T07:27:12.695Z,328.81
2024-05-09T07:28:14.321Z,331.40
2024-05-09T07:29:14.878Z,132.64
2024-05-09T07:30:22.984Z,307.10
2024-05-09T07:31:16.754Z,337.06
2024-05-09T07:32:17.802Z,343.45
2024-05-09T07:33:19.793Z,345.87
2024-05-09T07:34:20.082Z,350.47
2024-05-09T07:35:21.020Z,353.83
2024-05-09T07:36:22.117Z,355.07
2024-05-09T07:37:22.987Z,355.18
2024-05-09T07:38:23.966Z,356.60
2024-05-09T07:39:24.675Z,364.18
2024-05-09T07:40:33.037Z,365.49
2024-05-09T07:41:27.252Z,367.32
2024-05-09T07:42:27.632Z,374.47
2024-05-09T07:43:28.583Z,375.50
2024-05-09T07:44:29.936Z,378.55
2024-05-09T07:45:47.439Z,383.75
2024-05-09T07:48:57.539Z,384.41
2024-05-09T07:52:24.113Z,376.04
2024-05-09T07:53:14.241Z,384.70
2024-05-09T07:53:33.621Z,385.88
2024-05-09T07:53:44.031Z,386.40
2024-05-09T07:54:44.758Z,387.44
2024-05-09T07:55:40.919Z,389.87
2024-05-09T07:56:41.914Z,389.85
2024-05-09T07:57:43.300Z,390.19
2024-05-09T07:58:43.747Z,388.95
2024-05-09T07:59:44.684Z,395.49
2024-05-09T08:00:46.041Z,395.19
2024-05-09T08:01:46.759Z,396.71
2024-05-09T08:02:47.979Z,398.77
2024-05-09T08:03:49.056Z,400.09
2024-05-09T08:04:49.850Z,404.66
2024-05-09T08:05:51.977Z,404.32
2024-05-09T08:06:53.009Z,399.04
2024-05-09T08:07:53.519Z,414.44
2024-05-09T08:08:53.809Z,402.30
2024-05-09T08:09:55.492Z,416.69
2024-05-09T08:10:56.166Z,426.55
2024-05-09T08:12:03.668Z,439.36
2024-05-09T08:12:57.967Z,279.72
2024-05-09T08:13:59.848Z,436.94
2024-05-09T08:15:00.762Z,429.52
2024-05-09T08:16:01.006Z,437.86
2024-05-09T08:17:02.162Z,377.76
2024-05-09T08:18:03.374Z,385.44
2024-05-09T08:19:09.758Z,434.75
2024-05-09T08:20:05.649Z,445.60
2024-05-09T08:21:06.029Z,437.13
2024-05-09T08:22:07.959Z,447.85
2024-05-09T08:23:08.371Z,101.79
2024-05-09T08:24:08.954Z,464.70
2024-05-09T08:25:13.460Z,466.39
2024-05-09T08:26:13.201Z,103.52
2024-05-09T08:27:12.572Z,272.81
2024-05-09T08:28:13.268Z,322.36
2024-05-09T08:29:14.601Z,478.63
2024-05-09T08:30:21.967Z,392.17
2024-05-09T08:31:16.035Z,456.42
2024-05-09T08:32:16.902Z,485.50
2024-05-09T08:33:18.273Z,484.84
2024-05-09T08:34:19.084Z,489.12
2024-05-09T08:35:20.342Z,493.71
2024-05-09T08:36:21.848Z,503.09
2024-05-09T08:37:24.694Z,509.91
2024-05-09T08:38:23.874Z,478.50
2024-05-09T08:39:24.018Z,497.61
2024-05-09T08:40:31.103Z,502.60
2024-05-09T08:41:25.864Z,419.14
2024-05-09T08:42:27.001Z,501.70
2024-05-09T08:43:28.395Z,196.72
2024-05-09T08:44:29.034Z,533.76
2024-05-09T08:45:30.237Z,534.81
2024-05-09T08:46:31.008Z,392.42
2024-05-09T08:47:31.972Z,547.35
2024-05-09T08:48:33.102Z,187.06
2024-05-09T08:49:33.986Z,180.36
2024-05-09T08:50:38.632Z,311.22
2024-05-09T08:51:36.065Z,472.15
2024-05-09T08:52:37.097Z,557.47
2024-05-09T08:53:37.824Z,529.97
2024-05-09T08:54:39.039Z,520.24
2024-05-09T08:55:42.917Z,513.77
2024-05-09T08:56:42.088Z,509.04
2024-05-09T08:57:43.334Z,508.69
2024-05-09T08:58:42.894Z,506.79
2024-05-09T08:59:44.598Z,514.05
2024-05-09T09:00:46.284Z,530.41
2024-05-09T09:01:45.969Z,528.58
2024-05-09T09:02:47.057Z,528.68
2024-05-09T09:03:49.503Z,529.26
2024-05-09T09:04:49.113Z,536.01
2024-05-09T09:05:49.953Z,532.46
2024-05-09T09:06:53.138Z,541.15
2024-05-09T09:07:52.360Z,169.88
2024-05-09T09:08:54.411Z,567.28
2024-05-09T09:09:54.631Z,570.97
2024-05-09T09:10:55.098Z,566.92
2024-05-09T09:11:56.159Z,558.23
2024-05-09T09:12:58.276Z,258.41
2024-05-09T09:13:58.218Z,544.20
2024-05-09T09:14:59.404Z,541.72
2024-05-09T09:16:03.372Z,551.42
2024-05-09T09:17:01.733Z,346.74
2024-05-09T09:18:04.073Z,345.40
2024-05-09T09:19:04.359Z,519.40
2024-05-09T09:20:05.338Z,335.82
2024-05-09T09:21:05.372Z,395.33
2024-05-09T09:22:07.360Z,552.68
2024-05-09T09:23:07.790Z,558.44
2024-05-09T09:24:09.845Z,562.77
2024-05-09T09:25:09.525Z,560.67
2024-05-09T09:26:10.492Z,561.25
2024-05-09T09:27:11.940Z,566.20
2024-05-09T09:28:12.772Z,562.54
2024-05-09T09:29:13.527Z,556.75
2024-05-09T09:30:27.807Z,557.33
2024-05-09T09:31:15.816Z,557.65
2024-05-09T09:32:16.359Z,561.62
2024-05-09T09:33:17.456Z,575.18
2024-05-09T09:34:18.754Z,586.20
2024-05-09T09:35:19.444Z,287.40
2024-05-09T09:36:20.610Z,257.25
2024-05-09T09:37:21.470Z,210.36
2024-05-09T09:38:22.369Z,586.43
2024-05-09T09:39:24.311Z,602.65
2024-05-09T09:41:25.002Z,172.84
2024-05-09T09:42:26.198Z,221.03
2024-05-09T09:43:27.099Z,168.92
2024-05-09T09:44:27.971Z,167.43
2024-05-09T09:45:29.197Z,169.87
2024-05-09T09:46:30.417Z,166.45
2024-05-09T09:47:31.910Z,174.34
2024-05-09T09:48:32.340Z,184.51
2024-05-09T09:49:33.996Z,197.54
2024-05-09T09:50:35.229Z,266.65
2024-05-09T09:51:35.994Z,679.87
2024-05-09T09:52:36.185Z,670.07
2024-05-09T09:53:37.026Z,637.54
2024-05-09T09:54:38.206Z,395.72
2024-05-09T09:55:39.917Z,627.77
2024-05-09T09:56:40.257Z,661.18
2024-05-09T09:57:41.391Z,667.09
2024-05-09T09:58:42.856Z,304.85
2024-05-09T09:59:43.263Z,662.33
2024-05-09T10:00:45.144Z,328.48
2024-05-09T10:01:45.644Z,292.42
2024-05-09T10:02:47.557Z,243.04
2024-05-09T10:03:47.497Z,220.90
2024-05-09T10:04:48.375Z,230.05
2024-05-09T10:05:50.663Z,287.06
2024-05-09T10:06:50.614Z,215.59
2024-05-09T10:07:51.908Z,313.95
2024-05-09T10:08:52.290Z,710.96
2024-05-09T10:09:53.457Z,701.98
2024-05-09T10:10:54.535Z,704.66
2024-05-09T10:12:00.004Z,711.55
2024-05-09T10:12:56.426Z,716.46
2024-05-09T10:13:58.038Z,718.41
2024-05-09T10:14:58.359Z,727.56
2024-05-09T10:15:59.827Z,282.13
2024-05-09T10:17:00.464Z,721.18
2024-05-09T10:18:02.041Z,739.96
2024-05-09T10:19:02.454Z,341.55
2024-05-09T10:20:07.200Z,267.03
2024-05-09T10:21:04.414Z,270.02
2024-05-09T10:22:06.297Z,347.43
2024-05-09T10:23:06.897Z,345.05
2024-05-09T10:24:07.456Z,764.58
2024-05-09T10:25:09.029Z,739.29
2024-05-09T10:26:09.509Z,750.77
2024-05-09T10:27:10.393Z,431.94
2024-05-09T10:28:12.444Z,313.36
2024-05-09T10:29:13.684Z,694.49
2024-05-09T10:31:14.604Z,289.82
2024-05-09T10:32:15.446Z,240.13
2024-05-09T10:33:16.610Z,450.36
2024-05-09T10:34:17.670Z,657.43
2024-05-09T10:35:18.605Z,748.37
2024-05-09T10:36:19.463Z,742.02
2024-05-09T10:37:20.518Z,718.07
2024-05-09T10:38:21.659Z,495.73
2024-05-09T10:39:22.305Z,779.80
2024-05-09T10:40:29.353Z,720.14
2024-05-09T10:41:24.307Z,528.77
2024-05-09T10:42:25.181Z,595.22
2024-05-09T10:43:26.431Z,599.39
2024-05-09T10:44:27.459Z,731.73
2024-05-09T10:45:28.463Z,790.62
2024-05-09T10:46:29.463Z,267.15
2024-05-09T10:47:30.344Z,269.34
2024-05-09T10:48:31.356Z,422.04
2024-05-09T10:49:32.476Z,555.02
2024-05-09T10:50:34.642Z,240.98
2024-05-09T10:51:34.454Z,223.57
2024-05-09T10:52:35.355Z,240.34
2024-05-09T10:53:36.697Z,250.79
2024-05-09T10:54:38.253Z,540.27
2024-05-09T10:55:38.937Z,690.61
2024-05-09T10:56:39.328Z,626.81
2024-05-09T10:57:42.133Z,505.02
2024-05-09T10:58:42.686Z,252.56
2024-05-09T10:59:42.612Z,213.11
2024-05-09T11:00:43.791Z,655.11
2024-05-09T11:01:44.885Z,720.36
2024-05-09T11:02:45.500Z,661.69
2024-05-09T11:03:46.996Z,711.22
2024-05-09T11:04:47.674Z,707.21
2024-05-09T11:05:48.686Z,701.40
2024-05-09T11:06:49.490Z,701.98
2024-05-09T11:07:50.599Z,700.67
2024-05-09T11:08:51.719Z,702.53
2024-05-09T11:09:52.486Z,716.96
2024-05-09T11:10:55.166Z,586.31
2024-05-09T11:11:54.635Z,615.97
2024-05-09T11:12:55.729Z,579.74
2024-05-09T11:13:56.844Z,728.04
2024-05-09T11:14:57.801Z,734.81
2024-05-09T11:15:59.113Z,752.00
2024-05-09T11:16:59.869Z,753.32
2024-05-09T11:18:01.096Z,752.42
2024-05-09T11:19:02.496Z,752.97
2024-05-09T11:20:08.088Z,742.54
2024-05-09T11:21:05.383Z,755.89
2024-05-09T11:22:04.754Z,692.31
2024-05-09T11:23:06.280Z,485.96
2024-05-09T11:24:10.539Z,776.42
2024-05-09T11:25:08.111Z,781.38
2024-05-09T11:26:08.661Z,575.59
2024-05-09T11:27:10.468Z,333.67
2024-05-09T11:28:10.728Z,336.58
2024-05-09T11:29:15.749Z,724.63
2024-05-09T11:30:20.883Z,684.58
2024-05-09T11:31:14.212Z,672.45
2024-05-09T11:32:15.044Z,661.10
2024-05-09T11:33:16.112Z,638.74
2024-05-09T11:34:16.980Z,630.66
2024-05-09T11:35:18.060Z,629.24
2024-05-09T11:36:18.879Z,624.88
2024-05-09T11:37:19.890Z,615.93
2024-05-09T11:38:20.830Z,607.15
2024-05-09T11:39:21.601Z,578.42
2024-05-09T11:40:25.917Z,612.17
2024-05-09T11:41:23.652Z,612.06
2024-05-09T11:42:25.077Z,620.30
2024-05-09T11:43:26.230Z,621.97
2024-05-09T11:44:27.107Z,620.81
2024-05-09T11:45:27.655Z,620.65
2024-05-09T11:46:28.560Z,621.46
2024-05-09T11:47:29.720Z,617.79
2024-05-09T11:48:30.971Z,625.20
2024-05-09T11:49:31.855Z,632.45
2024-05-09T11:50:36.065Z,475.71
2024-05-09T11:51:33.736Z,659.99
2024-05-09T11:52:34.664Z,298.26
2024-05-09T11:53:36.378Z,298.82
2024-05-09T11:54:36.768Z,701.63
2024-05-09T11:55:37.621Z,224.85
2024-05-09T11:56:38.626Z,271.63
2024-05-09T11:57:39.788Z,304.03
2024-05-09T11:58:41.053Z,602.97
2024-05-09T11:59:42.118Z,509.30
2024-05-09T12:00:48.064Z,368.09
2024-05-09T12:01:44.521Z,171.10
2024-05-09T12:02:45.310Z,151.41
2024-05-09T12:03:46.065Z,135.98
2024-05-09T12:04:47.023Z,139.13
2024-05-09T12:05:48.528Z,454.74
2024-05-09T12:06:48.849Z,187.92
2024-05-09T12:07:49.866Z,278.10
2024-05-09T12:08:50.730Z,629.51
2024-05-09T12:09:51.797Z,237.36
2024-05-09T12:10:53.962Z,164.21
2024-05-09T12:11:53.933Z,622.02
2024-05-09T12:12:55.016Z,600.77
2024-05-09T12:13:55.739Z,600.70
2024-05-09T12:14:57.745Z,605.00
2024-05-09T12:15:58.172Z,607.89
2024-05-09T12:16:59.167Z,605.49
2024-05-09T12:18:02.968Z,610.73
2024-05-09T12:19:02.373Z,610.35
2024-05-09T12:20:02.518Z,612.12
2024-05-09T12:21:03.129Z,497.39
2024-05-09T12:22:04.357Z,326.04
2024-05-09T12:23:06.341Z,529.73
2024-05-09T12:24:06.023Z,519.94
2024-05-09T12:25:07.026Z,205.97
2024-05-09T12:26:07.965Z,159.36
2024-05-09T12:27:09.140Z,254.29
2024-05-09T12:28:11.083Z,135.02
2024-05-09T12:29:11.274Z,133.32
2024-05-09T12:30:20.610Z,157.07
2024-05-09T12:31:13.070Z,607.92
2024-05-09T12:32:15.345Z,602.22
2024-05-09T12:33:15.383Z,602.93
2024-05-09T12:34:16.785Z,612.68
2024-05-09T12:35:16.909Z,600.53
2024-05-09T12:36:18.745Z,540.63
2024-05-09T12:37:19.193Z,672.38
2024-05-09T12:38:20.377Z,286.43
2024-05-09T12:39:20.852Z,644.72
2024-05-09T12:40:31.342Z,332.87
2024-05-09T12:41:22.808Z,448.38
2024-05-09T12:42:27.462Z,530.91
2024-05-09T12:43:24.862Z,390.31
2024-05-09T12:44:27.072Z,288.08
2024-05-09T12:45:27.159Z,279.39
2024-05-09T12:46:28.069Z,273.13
2024-05-09T12:47:30.271Z,249.10
2024-05-09T12:48:29.973Z,288.99
2024-05-09T12:49:31.525Z,241.61
2024-05-09T12:50:34.859Z,366.76
2024-05-09T12:51:34.059Z,372.41
2024-05-09T12:52:33.752Z,309.35
2024-05-09T12:53:38.294Z,531.04
2024-05-09T12:54:35.857Z,584.88
2024-05-09T12:55:44.580Z,478.21
2024-05-09T12:56:38.034Z,332.49
2024-05-09T12:57:40.349Z,645.22
2024-05-09T12:58:41.214Z,639.17
2024-05-09T12:59:41.261Z,355.26
2024-05-09T13:00:42.315Z,548.48
2024-05-09T13:01:43.199Z,463.65
2024-05-09T13:02:44.068Z,307.68
2024-05-09T13:03:45.832Z,293.39
2024-05-09T13:04:46.156Z,224.24
2024-05-09T13:05:47.289Z,290.45
2024-05-09T13:06:49.595Z,200.56